Time;durP1;ratioP1;P1;durP2;ratioP2;P2;SDS_P1;SDS_P2;PMS_P1;PMS_P2;Temp;Humidity;BMP_temperature;BMP_pressure;BME280_temperature;BME280_humidity;BME280_pressure;Samples;Min_cycle;Max_cycle;Signal;HPM_P1;HPM_P2
2023/09/16 00:00:09;;;;;;;11.30;9.05;;;;;;;;;;5070215;28;20040;-61
2023/09/16 00:02:36;;;;;;;15.35;9.85;;;;;;;;;;5087447;28;20062;-60
2023/09/16 00:05:03;;;;;;;15.98;9.93;;;;;;;;;;5068887;28;20107;-60
2023/09/16 00:07:29;;;;;;;15.35;9.75;;;;;;;;;;5058030;28;20052;-60
2023/09/16 00:09:56;;;;;;;17.48;11.85;;;;;;;;;;5066569;28;20054;-60
2023/09/16 00:12:23;;;;;;;17.40;11.73;;;;;;;;;;5070336;28;20579;-61
2023/09/16 00:14:49;;;;;;;18.77;12.13;;;;;;;;;;5069978;28;20085;-60
2023/09/16 00:17:16;;;;;;;16.85;11.13;;;;;;;;;;5071840;28;20052;-60
2023/09/16 00:19:42;;;;;;;16.63;13.75;;;;;;;;;;5070439;28;20131;-60
2023/09/16 00:22:10;;;;;;;17.83;14.77;;;;;;;;;;5067580;28;20507;-60
2023/09/16 00:24:40;;;;;;;18.55;14.90;;;;;;;;;;5071605;28;20496;-60
2023/09/16 00:27:07;;;;;;;24.70;14.23;;;;;;;;;;5071834;28;20105;-60
2023/09/16 00:29:33;;;;;;;19.48;14.93;;;;;;;;;;5070234;28;20036;-60
2023/09/16 00:32:04;;;;;;;20.35;14.93;;;;;;;;;;5071518;28;20058;-60
2023/09/16 00:34:30;;;;;;;19.48;13.40;;;;;;;;;;5066565;28;20045;-60
2023/09/16 00:36:56;;;;;;;19.33;13.50;;;;;;;;;;5076268;28;20130;-60
2023/09/16 00:39:22;;;;;;;17.08;13.57;;;;;;;;;;5070296;28;20337;-60
2023/09/16 00:41:49;;;;;;;16.40;13.98;;;;;;;;;;5064500;28;20047;-60
2023/09/16 00:44:15;;;;;;;17.60;13.10;;;;;;;;;;5056987;28;20060;-60
2023/09/16 00:46:41;;;;;;;20.08;14.30;;;;;;;;;;5069890;28;20437;-60
2023/09/16 00:49:08;;;;;;;17.42;12.55;;;;;;;;;;5066105;28;20058;-60
2023/09/16 00:51:34;;;;;;;13.93;11.25;;;;;;;;;;5070186;28;20575;-60
2023/09/16 00:54:02;;;;;;;14.23;10.52;;;;;;;;;;5069509;28;20513;-60
2023/09/16 00:56:29;;;;;;;13.57;9.60;;;;;;;;;;5070796;28;20055;-61
2023/09/16 00:58:59;;;;;;;15.32;8.68;;;;;;;;;;5071272;28;20191;-60
2023/09/16 01:01:26;;;;;;;13.25;8.40;;;;;;;;;;5059137;28;20052;-60
2023/09/16 01:03:53;;;;;;;10.80;8.20;;;;;;;;;;5067216;28;20063;-60
2023/09/16 01:06:19;;;;;;;10.52;8.05;;;;;;;;;;5099149;28;20041;-60
2023/09/16 01:08:46;;;;;;;11.02;8.90;;;;;;;;;;5063581;28;20051;-60
2023/09/16 01:11:12;;;;;;;10.63;9.15;;;;;;;;;;5068220;28;20138;-60
2023/09/16 01:13:39;;;;;;;12.13;9.60;;;;;;;;;;5064818;28;20049;-60
2023/09/16 01:16:12;;;;;;;10.43;9.25;;;;;;;;;;5065497;28;20120;-60
2023/09/16 01:18:41;;;;;;;14.25;9.23;;;;;;;;;;5070362;28;20484;-60
2023/09/16 01:21:08;;;;;;;16.98;10.18;;;;;;;;;;5071169;28;20067;-60
2023/09/16 01:23:34;;;;;;;11.68;10.13;;;;;;;;;;5070909;28;20045;-60
2023/09/16 01:26:01;;;;;;;14.63;9.68;;;;;;;;;;5070523;28;20162;-60
2023/09/16 01:28:27;;;;;;;15.95;11.10;;;;;;;;;;5070976;28;20033;-60
2023/09/16 01:30:56;;;;;;;17.13;12.63;;;;;;;;;;5077309;28;20085;-60
2023/09/16 01:33:22;;;;;;;15.40;12.57;;;;;;;;;;5083922;28;20131;-60
2023/09/16 01:35:49;;;;;;;16.05;11.95;;;;;;;;;;5071023;28;20168;-60
2023/09/16 01:38:18;;;;;;;17.67;11.70;;;;;;;;;;5080846;28;20044;-60
2023/09/16 01:40:45;;;;;;;12.95;11.05;;;;;;;;;;5068901;28;20048;-60
2023/09/16 01:43:11;;;;;;;18.10;11.95;;;;;;;;;;5070677;28;20090;-60
2023/09/16 01:45:44;;;;;;;16.38;10.73;;;;;;;;;;5070243;28;20039;-60
2023/09/16 01:48:11;;;;;;;19.17;11.80;;;;;;;;;;5069704;28;20230;-60
2023/09/16 01:50:37;;;;;;;15.13;12.52;;;;;;;;;;5081058;28;20295;-60
2023/09/16 01:53:06;;;;;;;15.23;10.82;;;;;;;;;;5055528;28;20052;-60
2023/09/16 01:55:33;;;;;;;15.98;12.05;;;;;;;;;;5066271;28;20045;-60
2023/09/16 01:57:59;;;;;;;23.17;12.82;;;;;;;;;;5063922;28;20037;-60
2023/09/16 02:00:25;;;;;;;17.50;14.02;;;;;;;;;;5057077;28;20079;-60
2023/09/16 02:02:52;;;;;;;18.15;14.43;;;;;;;;;;5070421;28;20052;-60
2023/09/16 02:05:18;;;;;;;11.65;10.43;;;;;;;;;;5068555;28;20059;-60
2023/09/16 02:07:44;;;;;;;19.55;16.35;;;;;;;;;;5063897;28;20452;-60
2023/09/16 02:10:10;;;;;;;17.42;15.10;;;;;;;;;;5069135;28;20044;-60
2023/09/16 02:12:36;;;;;;;14.27;10.65;;;;;;;;;;5057264;28;20040;-60
2023/09/16 02:15:04;;;;;;;15.48;9.70;;;;;;;;;;5065695;28;20041;-60
2023/09/16 02:17:30;;;;;;;16.88;9.48;;;;;;;;;;5050974;28;20040;-60
2023/09/16 02:19:56;;;;;;;18.40;13.23;;;;;;;;;;5069870;28;20484;-60
2023/09/16 02:22:23;;;;;;;17.90;14.55;;;;;;;;;;5061743;28;20362;-60
2023/09/16 02:24:49;;;;;;;16.48;14.70;;;;;;;;;;5066174;28;20045;-60
2023/09/16 02:27:15;;;;;;;15.65;12.80;;;;;;;;;;5070461;28;20424;-60
2023/09/16 02:29:41;;;;;;;13.63;9.98;;;;;;;;;;5068769;28;20065;-60
2023/09/16 02:32:07;;;;;;;13.35;10.70;;;;;;;;;;5066759;28;20041;-60
2023/09/16 02:34:36;;;;;;;17.85;11.32;;;;;;;;;;5070829;28;20560;-60
2023/09/16 02:37:02;;;;;;;15.68;10.85;;;;;;;;;;5071836;28;20471;-60
2023/09/16 02:39:28;;;;;;;12.57;8.98;;;;;;;;;;5070272;28;20067;-60
2023/09/16 02:41:54;;;;;;;13.75;8.07;;;;;;;;;;5069707;28;20113;-60
2023/09/16 02:44:20;;;;;;;12.02;7.38;;;;;;;;;;5056549;28;20044;-60
2023/09/16 02:46:46;;;;;;;9.85;6.30;;;;;;;;;;5065074;28;20123;-60
2023/09/16 02:49:13;;;;;;;9.25;5.80;;;;;;;;;;5068422;28;20384;-60
2023/09/16 02:51:39;;;;;;;6.53;4.05;;;;;;;;;;5078275;28;20094;-60
2023/09/16 02:54:06;;;;;;;6.47;4.57;;;;;;;;;;5060170;28;20037;-60
2023/09/16 02:56:33;;;;;;;11.32;4.32;;;;;;;;;;5073203;28;20144;-60
2023/09/16 02:59:00;;;;;;;6.63;4.47;;;;;;;;;;5065369;28;20076;-60
2023/09/16 03:01:27;;;;;;;5.85;4.50;;;;;;;;;;5067835;28;20052;-60
2023/09/16 03:03:53;;;;;;;6.07;3.97;;;;;;;;;;5068761;28;20060;-60
2023/09/16 03:06:19;;;;;;;8.57;3.95;;;;;;;;;;5063543;28;20163;-60
2023/09/16 03:08:46;;;;;;;5.45;3.08;;;;;;;;;;5067168;28;20044;-60
2023/09/16 03:11:12;;;;;;;6.93;4.15;;;;;;;;;;5070242;28;20545;-60
2023/09/16 03:13:38;;;;;;;5.65;4.55;;;;;;;;;;5068567;28;20465;-60
2023/09/16 03:16:18;;;;;;;6.10;4.60;;;;;;;;;;5068556;28;20037;-60
2023/09/16 03:18:48;;;;;;;6.53;3.08;;;;;;;;;;5070471;28;20047;-60
2023/09/16 03:21:16;;;;;;;4.88;2.88;;;;;;;;;;5074879;28;20052;-60
2023/09/16 03:23:42;;;;;;;8.15;4.07;;;;;;;;;;5076716;28;20111;-60
2023/09/16 03:26:09;;;;;;;5.63;3.45;;;;;;;;;;5068964;28;20040;-60
2023/09/16 03:28:35;;;;;;;5.13;3.40;;;;;;;;;;5072965;28;20075;-60
2023/09/16 03:31:02;;;;;;;6.32;3.60;;;;;;;;;;5080289;28;20086;-60
2023/09/16 03:33:28;;;;;;;5.68;3.40;;;;;;;;;;5078248;28;20036;-60
2023/09/16 03:35:54;;;;;;;9.82;3.85;;;;;;;;;;5073188;28;20051;-60
2023/09/16 03:38:21;;;;;;;7.82;5.32;;;;;;;;;;5081145;28;20088;-60
2023/09/16 03:40:50;;;;;;;8.18;6.38;;;;;;;;;;5069422;28;20044;-60
2023/09/16 03:43:17;;;;;;;10.10;5.07;;;;;;;;;;5075498;28;20128;-60
2023/09/16 03:45:43;;;;;;;9.45;6.70;;;;;;;;;;5071635;28;20037;-60
2023/09/16 03:48:09;;;;;;;10.55;6.47;;;;;;;;;;5073785;28;20048;-60
2023/09/16 03:50:35;;;;;;;14.00;8.55;;;;;;;;;;5078993;28;20487;-60
2023/09/16 03:53:01;;;;;;;19.27;15.95;;;;;;;;;;5060817;28;20040;-60
2023/09/16 03:55:28;;;;;;;8.15;6.18;;;;;;;;;;5072526;28;20450;-60
2023/09/16 03:57:54;;;;;;;10.20;6.03;;;;;;;;;;5062755;28;20059;-60
2023/09/16 04:00:20;;;;;;;10.10;7.15;;;;;;;;;;5071486;28;20045;-60
2023/09/16 04:02:46;;;;;;;10.02;6.05;;;;;;;;;;5071052;28;20040;-60
2023/09/16 04:05:13;;;;;;;8.25;5.95;;;;;;;;;;5072611;28;20125;-60
2023/09/16 04:07:40;;;;;;;15.32;12.50;;;;;;;;;;5063608;28;20088;-60
2023/09/16 04:10:07;;;;;;;19.17;13.88;;;;;;;;;;5072200;28;20043;-60
2023/09/16 04:12:33;;;;;;;11.57;8.23;;;;;;;;;;5067785;28;20041;-60
2023/09/16 04:14:59;;;;;;;8.13;5.90;;;;;;;;;;5053659;28;20106;-60
2023/09/16 04:17:25;;;;;;;9.70;7.28;;;;;;;;;;5067889;28;20049;-60
2023/09/16 04:19:52;;;;;;;21.05;13.90;;;;;;;;;;5064592;28;20083;-60
2023/09/16 04:22:19;;;;;;;23.50;19.30;;;;;;;;;;5063938;28;20539;-60
2023/09/16 04:24:45;;;;;;;14.50;10.75;;;;;;;;;;5067683;28;20048;-60
2023/09/16 04:27:11;;;;;;;15.55;10.40;;;;;;;;;;5069841;28;20044;-60
2023/09/16 04:29:37;;;;;;;14.05;11.70;;;;;;;;;;5073376;28;20094;-60
2023/09/16 04:32:04;;;;;;;15.85;12.95;;;;;;;;;;5064515;28;20041;-60
2023/09/16 04:34:30;;;;;;;12.38;9.85;;;;;;;;;;5070469;28;20094;-60
2023/09/16 04:36:58;;;;;;;11.35;7.75;;;;;;;;;;5070838;28;20104;-60
2023/09/16 04:39:25;;;;;;;12.20;8.35;;;;;;;;;;5071566;28;20059;-60
2023/09/16 04:41:54;;;;;;;14.82;9.73;;;;;;;;;;5069454;28;20422;-60
2023/09/16 04:44:20;;;;;;;11.07;9.40;;;;;;;;;;5059219;28;20553;-60
2023/09/16 04:46:47;;;;;;;11.23;9.68;;;;;;;;;;5075049;28;20121;-60
2023/09/16 04:49:13;;;;;;;15.05;10.68;;;;;;;;;;5081800;28;20052;-60
2023/09/16 04:51:39;;;;;;;17.17;12.93;;;;;;;;;;5078792;28;20090;-60
2023/09/16 04:54:07;;;;;;;15.88;12.38;;;;;;;;;;5049062;28;20108;-60
2023/09/16 04:56:35;;;;;;;17.08;11.13;;;;;;;;;;5078485;28;20353;-60
2023/09/16 04:59:01;;;;;;;15.57;11.90;;;;;;;;;;5071054;28;20476;-60
2023/09/16 05:01:29;;;;;;;16.98;11.73;;;;;;;;;;5073182;28;20342;-60
2023/09/16 05:03:55;;;;;;;13.88;9.98;;;;;;;;;;5068231;28;20414;-60
2023/09/16 05:06:21;;;;;;;16.08;10.23;;;;;;;;;;5063173;28;20404;-60
2023/09/16 05:08:48;;;;;;;15.30;11.65;;;;;;;;;;5063643;28;20040;-60
2023/09/16 05:11:14;;;;;;;14.20;10.70;;;;;;;;;;5068989;28;20041;-60
2023/09/16 05:13:41;;;;;;;13.63;9.45;;;;;;;;;;5072969;28;20041;-60
2023/09/16 05:16:10;;;;;;;11.23;9.35;;;;;;;;;;5078240;28;20036;-60
2023/09/16 05:18:36;;;;;;;9.68;7.82;;;;;;;;;;5079933;28;20048;-60
2023/09/16 05:21:03;;;;;;;10.27;8.00;;;;;;;;;;5071040;28;20052;-60
2023/09/16 05:23:51;;;;;;;8.80;7.68;;;;;;;;;;5058618;28;20041;-60
2023/09/16 05:26:16;;;;;;;10.82;9.07;;;;;;;;;;5066437;28;20105;-60
2023/09/16 05:28:42;;;;;;;18.27;13.73;;;;;;;;;;5071034;28;20052;-60
2023/09/16 05:31:09;;;;;;;17.60;14.18;;;;;;;;;;5073717;28;20400;-60
2023/09/16 05:33:36;;;;;;;15.07;12.95;;;;;;;;;;5081895;28;20514;-60
2023/09/16 05:36:02;;;;;;;15.98;12.35;;;;;;;;;;5076652;28;20036;-60
2023/09/16 05:38:28;;;;;;;16.13;12.05;;;;;;;;;;5070138;28;20040;-60
2023/09/16 05:40:54;;;;;;;10.40;9.05;;;;;;;;;;5080422;28;20506;-60
2023/09/16 05:43:21;;;;;;;13.23;10.60;;;;;;;;;;5073449;28;20429;-60
2023/09/16 05:45:50;;;;;;;13.38;10.30;;;;;;;;;;5067834;28;20119;-60
2023/09/16 05:48:17;;;;;;;12.15;10.18;;;;;;;;;;5062553;28;20083;-60
2023/09/16 05:50:43;;;;;;;11.80;9.93;;;;;;;;;;5066925;28;20074;-60
2023/09/16 05:53:09;;;;;;;10.75;9.65;;;;;;;;;;5062511;28;20054;-60
2023/09/16 05:55:39;;;;;;;9.23;8.15;;;;;;;;;;5062552;28;20036;-60
2023/09/16 05:58:06;;;;;;;14.40;9.82;;;;;;;;;;5060904;28;20101;-60
2023/09/16 06:00:33;;;;;;;12.63;10.43;;;;;;;;;;5062676;28;20041;-60
2023/09/16 06:02:59;;;;;;;11.52;7.43;;;;;;;;;;5063795;28;20040;-60
2023/09/16 06:05:33;;;;;;;7.13;6.15;;;;;;;;;;5070399;28;20051;-60
2023/09/16 06:07:59;;;;;;;;;;;;;;;;;;5071451;28;20120;-60
2023/09/16 06:10:25;;;;;;;8.07;5.82;;;;;;;;;;5069789;28;19924;-60
2023/09/16 06:12:51;;;;;;;8.80;6.03;;;;;;;;;;5069703;28;20419;-60
2023/09/16 06:15:17;;;;;;;8.43;6.65;;;;;;;;;;5063404;28;20108;-60
2023/09/16 06:17:44;;;;;;;10.50;7.53;;;;;;;;;;5060863;28;20044;-60
2023/09/16 06:20:10;;;;;;;9.25;7.40;;;;;;;;;;5067925;28;20057;-60
2023/09/16 06:22:36;;;;;;;12.23;8.25;;;;;;;;;;5066912;28;20045;-60
2023/09/16 06:25:05;;;;;;;9.93;8.38;;;;;;;;;;5070478;28;20032;-60
2023/09/16 06:27:32;;;;;;;10.27;7.85;;;;;;;;;;5068963;28;20051;-60
2023/09/16 06:29:58;;;;;;;8.65;6.68;;;;;;;;;;5063726;28;20353;-60
2023/09/16 06:32:24;;;;;;;9.23;7.05;;;;;;;;;;5061091;28;20043;-60
2023/09/16 06:34:50;;;;;;;10.93;8.93;;;;;;;;;;5060874;28;20052;-59
2023/09/16 06:37:16;;;;;;;11.70;7.45;;;;;;;;;;5063914;28;20064;-59
2023/09/16 06:39:45;;;;;;;10.95;8.13;;;;;;;;;;5065465;28;20492;-60
2023/09/16 06:42:11;;;;;;;19.55;17.02;;;;;;;;;;5065760;28;20092;-58
2023/09/16 06:44:38;;;;;;;21.90;18.20;;;;;;;;;;5059366;28;20040;-59
2023/09/16 06:47:04;;;;;;;27.27;24.35;;;;;;;;;;5070166;28;20061;-60
2023/09/16 06:49:30;;;;;;;27.13;24.05;;;;;;;;;;5074845;28;20106;-60
2023/09/16 06:51:56;;;;;;;24.55;21.83;;;;;;;;;;5067505;28;20491;-60
2023/09/16 06:54:23;;;;;;;28.17;23.63;;;;;;;;;;5070213;28;20044;-60
2023/09/16 06:56:49;;;;;;;27.23;23.98;;;;;;;;;;5069415;28;20045;-60
2023/09/16 06:59:15;;;;;;;28.40;25.33;;;;;;;;;;5070007;28;20110;-60
2023/09/16 07:01:41;;;;;;;28.77;25.58;;;;;;;;;;5071379;28;20045;-60
2023/09/16 07:04:07;;;;;;;28.27;23.90;;;;;;;;;;5071770;28;20051;-60
2023/09/16 07:06:34;;;;;;;24.98;22.13;;;;;;;;;;5073762;28;20048;-60
2023/09/16 07:09:00;;;;;;;26.20;23.50;;;;;;;;;;5072989;28;20492;-60
2023/09/16 07:11:26;;;;;;;26.98;24.13;;;;;;;;;;5073865;28;20037;-60
2023/09/16 07:13:53;;;;;;;27.15;24.17;;;;;;;;;;5073665;28;20052;-60
2023/09/16 07:16:20;;;;;;;29.80;25.85;;;;;;;;;;5072097;28;20058;-60
2023/09/16 07:18:46;;;;;;;27.13;24.17;;;;;;;;;;5072931;28;20047;-60
2023/09/16 07:21:12;;;;;;;29.20;24.10;;;;;;;;;;5072827;28;20045;-60
2023/09/16 07:23:38;;;;;;;29.10;25.63;;;;;;;;;;5072870;28;20373;-60
2023/09/16 07:26:04;;;;;;;28.40;24.50;;;;;;;;;;5073274;28;20036;-60
2023/09/16 07:28:30;;;;;;;28.65;25.65;;;;;;;;;;5073270;28;20055;-60
2023/09/16 07:30:57;;;;;;;27.50;24.40;;;;;;;;;;5072713;28;20455;-60
2023/09/16 07:33:23;;;;;;;27.42;23.42;;;;;;;;;;5073095;28;20114;-60
2023/09/16 07:35:51;;;;;;;26.52;23.73;;;;;;;;;;5073476;28;20072;-60
2023/09/16 07:38:17;;;;;;;26.92;24.08;;;;;;;;;;5072565;28;20045;-60
2023/09/16 07:40:43;;;;;;;29.02;23.88;;;;;;;;;;5072924;28;20468;-60
2023/09/16 07:43:11;;;;;;;27.17;23.85;;;;;;;;;;5073387;28;20101;-60
2023/09/16 07:45:38;;;;;;;29.10;24.00;;;;;;;;;;5071971;28;20060;-60
2023/09/16 07:48:07;;;;;;;26.88;23.88;;;;;;;;;;5072823;28;20417;-60
2023/09/16 07:50:33;;;;;;;24.45;21.92;;;;;;;;;;5072905;28;20088;-60
2023/09/16 07:52:59;;;;;;;25.90;22.83;;;;;;;;;;5072503;28;20419;-60
2023/09/16 07:55:26;;;;;;;27.35;22.33;;;;;;;;;;5072706;28;20115;-60
2023/09/16 07:57:52;;;;;;;24.33;21.17;;;;;;;;;;5072904;28;20143;-60
2023/09/16 08:00:18;;;;;;;25.33;22.30;;;;;;;;;;5072021;28;20044;-60
2023/09/16 08:02:44;;;;;;;25.25;20.60;;;;;;;;;;5072621;28;20527;-60
2023/09/16 08:05:10;;;;;;;23.60;20.20;;;;;;;;;;5072372;28;20052;-60
2023/09/16 08:07:37;;;;;;;23.30;20.70;;;;;;;;;;5072249;28;20037;-60
2023/09/16 08:10:03;;;;;;;23.27;20.20;;;;;;;;;;5072599;28;20101;-60
2023/09/16 08:12:30;;;;;;;20.83;18.42;;;;;;;;;;5072858;28;20039;-60
2023/09/16 08:14:56;;;;;;;23.10;18.33;;;;;;;;;;5069753;28;20532;-60
2023/09/16 08:17:22;;;;;;;20.63;17.30;;;;;;;;;;5072474;28;20063;-60
2023/09/16 08:19:48;;;;;;;18.92;16.13;;;;;;;;;;5071437;28;20083;-60
2023/09/16 08:22:14;;;;;;;19.63;15.90;;;;;;;;;;5072372;28;20051;-60
2023/09/16 08:24:40;;;;;;;18.05;16.15;;;;;;;;;;5072086;28;20103;-60
2023/09/16 08:27:06;;;;;;;20.65;15.30;;;;;;;;;;5072029;28;20330;-60
2023/09/16 08:29:33;;;;;;;17.88;15.23;;;;;;;;;;5072147;28;20052;-60
2023/09/16 08:31:59;;;;;;;18.67;14.50;;;;;;;;;;5072142;28;20047;-60
2023/09/16 08:34:25;;;;;;;16.77;13.70;;;;;;;;;;5071462;28;20126;-60
2023/09/16 08:36:51;;;;;;;16.60;13.35;;;;;;;;;;5072008;28;20116;-60
2023/09/16 08:39:17;;;;;;;15.80;12.77;;;;;;;;;;5072304;28;20084;-60
2023/09/16 08:42:00;;;;;;;17.63;11.55;;;;;;;;;;5071074;28;20044;-60
2023/09/16 08:44:28;;;;;;;15.82;11.82;;;;;;;;;;5071901;28;20095;-60
2023/09/16 08:47:14;;;;;;;14.25;11.10;;;;;;;;;;5071851;28;20047;-60
2023/09/16 08:49:43;;;;;;;15.90;12.25;;;;;;;;;;5071375;28;20089;-60
2023/09/16 08:52:11;;;;;;;15.85;11.57;;;;;;;;;;5071880;28;20056;-60
2023/09/16 08:54:39;;;;;;;15.98;10.43;;;;;;;;;;5071217;28;20055;-60
2023/09/16 08:57:06;;;;;;;14.52;10.27;;;;;;;;;;5071673;28;20098;-60
2023/09/16 08:59:36;;;;;;;14.35;10.25;;;;;;;;;;5071658;28;20085;-60
2023/09/16 09:02:02;;;;;;;16.50;9.70;;;;;;;;;;5070768;28;20091;-60
2023/09/16 09:04:29;;;;;;;13.45;8.90;;;;;;;;;;5071407;28;20456;-60
2023/09/16 09:06:55;;;;;;;14.38;10.48;;;;;;;;;;5071722;28;20045;-60
2023/09/16 09:09:22;;;;;;;16.05;9.93;;;;;;;;;;5070531;28;20090;-60
2023/09/16 09:11:48;;;;;;;13.88;10.40;;;;;;;;;;5071400;28;20089;-60
2023/09/16 09:14:15;;;;;;;12.10;9.90;;;;;;;;;;5071144;28;20423;-60
2023/09/16 09:16:43;;;;;;;16.63;10.15;;;;;;;;;;5069655;28;20048;-60
2023/09/16 09:19:11;;;;;;;12.27;9.18;;;;;;;;;;5071337;28;20053;-60
2023/09/16 09:21:37;;;;;;;14.77;8.95;;;;;;;;;;5071174;28;20440;-60
2023/09/16 09:24:03;;;;;;;13.23;9.35;;;;;;;;;;5070409;28;20377;-60
2023/09/16 09:26:29;;;;;;;12.30;8.20;;;;;;;;;;5070867;28;20040;-60
2023/09/16 09:28:59;;;;;;;11.45;8.15;;;;;;;;;;5071184;28;20060;-60
2023/09/16 09:31:25;;;;;;;10.15;7.95;;;;;;;;;;5070127;28;20118;-60
2023/09/16 09:33:51;;;;;;;14.13;8.80;;;;;;;;;;5070329;28;20090;-60
2023/09/16 09:36:18;;;;;;;12.38;9.20;;;;;;;;;;5070934;28;20040;-60
2023/09/16 09:38:45;;;;;;;11.25;8.02;;;;;;;;;;5069943;28;20139;-60
2023/09/16 09:41:12;;;;;;;12.90;8.10;;;;;;;;;;5070827;28;20175;-60
2023/09/16 09:43:38;;;;;;;13.75;8.10;;;;;;;;;;5070515;28;20040;-60
2023/09/16 09:46:04;;;;;;;9.82;5.35;;;;;;;;;;5070462;28;20365;-60
2023/09/16 09:48:32;;;;;;;10.20;5.70;;;;;;;;;;5070747;28;20056;-60
2023/09/16 09:50:58;;;;;;;9.30;4.68;;;;;;;;;;5056231;28;20092;-60
2023/09/16 09:53:26;;;;;;;10.68;5.30;;;;;;;;;;5070712;28;20102;-60
2023/09/16 09:55:53;;;;;;;6.43;4.47;;;;;;;;;;5070598;28;20044;-60
2023/09/16 09:58:19;;;;;;;9.90;4.95;;;;;;;;;;5068505;28;20045;-60
2023/09/16 10:00:49;;;;;;;8.68;5.70;;;;;;;;;;5070168;28;20047;-60
2023/09/16 10:03:15;;;;;;;9.57;5.65;;;;;;;;;;5070317;28;20119;-60
2023/09/16 10:05:42;;;;;;;9.07;5.45;;;;;;;;;;5069786;28;20052;-60
2023/09/16 10:08:08;;;;;;;6.80;4.90;;;;;;;;;;5070622;28;20503;-60
2023/09/16 10:10:36;;;;;;;8.45;5.22;;;;;;;;;;5070459;28;20070;-60
2023/09/16 10:13:02;;;;;;;9.95;5.38;;;;;;;;;;5069678;28;20109;-60
2023/09/16 10:15:31;;;;;;;11.15;5.35;;;;;;;;;;5070433;28;20059;-60
2023/09/16 10:17:57;;;;;;;8.23;4.80;;;;;;;;;;5070527;28;20078;-60
2023/09/16 10:20:24;;;;;;;9.23;5.03;;;;;;;;;;5069683;28;20464;-60
2023/09/16 10:22:50;;;;;;;8.15;5.43;;;;;;;;;;5070348;28;20076;-60
2023/09/16 10:25:19;;;;;;;7.43;4.60;;;;;;;;;;5070439;28;20044;-60
2023/09/16 10:27:54;;;;;;;7.22;4.65;;;;;;;;;;5069616;28;20518;-60
2023/09/16 10:30:20;;;;;;;8.73;4.72;;;;;;;;;;5070245;28;20094;-60
2023/09/16 10:32:47;;;;;;;8.02;4.22;;;;;;;;;;5070042;28;20063;-60
2023/09/16 10:35:13;;;;;;;8.15;4.65;;;;;;;;;;5069559;28;20105;-60
2023/09/16 10:37:39;;;;;;;7.03;4.57;;;;;;;;;;5073428;28;20480;-60
2023/09/16 10:40:06;;;;;;;6.50;4.10;;;;;;;;;;5073189;28;20044;-60
2023/09/16 10:42:37;;;;;;;6.78;4.63;;;;;;;;;;5074497;28;20066;-60
2023/09/16 10:45:03;;;;;;;8.63;5.30;;;;;;;;;;5074209;28;20040;-60
2023/09/16 10:47:31;;;;;;;8.82;4.53;;;;;;;;;;5071723;28;20473;-61
2023/09/16 10:49:57;;;;;;;11.48;4.97;;;;;;;;;;5074242;28;20070;-61
2023/09/16 10:52:42;;;;;;;11.52;4.85;;;;;;;;;;5073952;28;20586;-61
2023/09/16 10:55:26;;;;;;;10.00;4.22;;;;;;;;;;5071993;28;20040;-61
2023/09/16 10:58:02;;;;;;;10.02;5.00;;;;;;;;;;5061017;28;20036;-61
2023/09/16 11:00:31;;;;;;;6.70;3.95;;;;;;;;;;5073767;28;20044;-61
2023/09/16 11:02:58;;;;;;;8.73;4.00;;;;;;;;;;5073120;28;20120;-60
2023/09/16 11:05:25;;;;;;;6.00;3.20;;;;;;;;;;5073812;28;20549;-61
2023/09/16 11:07:52;;;;;;;5.45;3.40;;;;;;;;;;5073734;28;20099;-61
2023/09/16 11:10:19;;;;;;;5.60;3.28;;;;;;;;;;5073004;28;20523;-61
2023/09/16 11:12:45;;;;;;;6.78;3.30;;;;;;;;;;5073696;28;20043;-61
2023/09/16 11:15:11;;;;;;;6.97;3.60;;;;;;;;;;5072844;28;20048;-61
2023/09/16 11:17:40;;;;;;;7.43;3.80;;;;;;;;;;5073437;28;20041;-61
2023/09/16 11:20:13;;;;;;;11.57;4.35;;;;;;;;;;5073680;28;20094;-61
2023/09/16 11:22:47;;;;;;;7.40;4.20;;;;;;;;;;5072318;28;20523;-61
2023/09/16 11:25:13;;;;;;;8.45;4.30;;;;;;;;;;5072727;28;20044;-61
2023/09/16 11:27:40;;;;;;;7.22;4.07;;;;;;;;;;5073161;28;20045;-61
2023/09/16 11:30:13;;;;;;;6.07;3.65;;;;;;;;;;5072492;28;20082;-61
2023/09/16 11:32:55;;;;;;;8.20;4.20;;;;;;;;;;5073477;28;20137;-61
2023/09/16 11:35:22;;;;;;;6.20;3.47;;;;;;;;;;5073212;28;20437;-61
2023/09/16 11:37:48;;;;;;;7.38;3.70;;;;;;;;;;5072407;28;20052;-61
2023/09/16 11:40:15;;;;;;;6.80;3.40;;;;;;;;;;5072936;28;20033;-61
2023/09/16 11:42:41;;;;;;;6.60;3.40;;;;;;;;;;5073128;28;20396;-61
2023/09/16 11:45:08;;;;;;;6.10;3.72;;;;;;;;;;5070818;28;20049;-61
2023/09/16 11:47:34;;;;;;;6.88;3.78;;;;;;;;;;5071962;28;20087;-61
2023/09/16 11:50:01;;;;;;;7.05;2.67;;;;;;;;;;5072924;28;20049;-61
2023/09/16 11:52:27;;;;;;;6.60;3.22;;;;;;;;;;5071715;28;20083;-61
2023/09/16 11:54:55;;;;;;;6.00;3.47;;;;;;;;;;5072493;28;20473;-61
2023/09/16 11:57:21;;;;;;;7.05;2.65;;;;;;;;;;5072063;28;20442;-61
2023/09/16 11:59:48;;;;;;;5.13;2.67;;;;;;;;;;5072909;28;20051;-61
2023/09/16 12:02:15;;;;;;;6.47;2.90;;;;;;;;;;5072817;28;20102;-61
2023/09/16 12:04:41;;;;;;;7.32;2.45;;;;;;;;;;5072044;28;20114;-61
2023/09/16 12:07:08;;;;;;;4.97;2.83;;;;;;;;;;5072753;28;20045;-61
2023/09/16 12:09:34;;;;;;;6.72;2.80;;;;;;;;;;5072509;28;20045;-61
2023/09/16 12:12:03;;;;;;;6.43;2.83;;;;;;;;;;5071994;28;20032;-59
2023/09/16 12:14:29;;;;;;;5.32;3.05;;;;;;;;;;5072720;28;20529;-59
2023/09/16 12:16:56;;;;;;;8.43;3.67;;;;;;;;;;5071766;28;20360;-59
2023/09/16 12:19:22;;;;;;;4.63;2.83;;;;;;;;;;5070257;28;20049;-59
2023/09/16 12:21:49;;;;;;;4.97;2.72;;;;;;;;;;5072354;28;20165;-59
2023/09/16 12:24:18;;;;;;;5.15;2.60;;;;;;;;;;5072279;28;20040;-59
2023/09/16 12:26:45;;;;;;;7.30;2.70;;;;;;;;;;5071795;28;20044;-59
2023/09/16 12:29:12;;;;;;;5.15;2.95;;;;;;;;;;5072249;28;20508;-59
2023/09/16 12:31:38;;;;;;;6.15;2.95;;;;;;;;;;5070044;28;20119;-59
2023/09/16 12:34:04;;;;;;;4.97;3.50;;;;;;;;;;5071005;28;20037;-59
2023/09/16 12:36:30;;;;;;;5.82;3.05;;;;;;;;;;5072163;28;20040;-59
2023/09/16 12:38:59;;;;;;;7.72;3.28;;;;;;;;;;5071878;28;20047;-59
2023/09/16 12:41:25;;;;;;;7.22;3.30;;;;;;;;;;5071248;28;20044;-59
2023/09/16 12:43:53;;;;;;;5.65;2.90;;;;;;;;;;5071765;28;20136;-59
2023/09/16 12:46:20;;;;;;;5.85;3.10;;;;;;;;;;5072272;28;20079;-59
2023/09/16 12:48:50;;;;;;;7.07;2.72;;;;;;;;;;5070781;28;20049;-59
2023/09/16 12:51:20;;;;;;;5.75;2.75;;;;;;;;;;5071817;28;20476;-59
2023/09/16 12:53:47;;;;;;;8.75;3.35;;;;;;;;;;5069645;28;20055;-59
2023/09/16 12:56:19;;;;;;;6.60;3.05;;;;;;;;;;5071893;28;20041;-59
2023/09/16 12:58:46;;;;;;;;;;;;;;;;;;5071550;28;20055;-59
2023/09/16 13:01:17;;;;;;;8.00;3.70;;;;;;;;;;5070684;28;19931;-59
2023/09/16 13:03:44;;;;;;;6.50;2.90;;;;;;;;;;5070458;28;20480;-59
2023/09/16 13:06:10;;;;;;;6.63;3.35;;;;;;;;;;5071575;28;20040;-59
2023/09/16 13:08:37;;;;;;;7.30;3.30;;;;;;;;;;5070728;28;20052;-58
2023/09/16 13:11:03;;;;;;;7.82;3.63;;;;;;;;;;5071281;28;20112;-59
2023/09/16 13:13:30;;;;;;;7.25;3.95;;;;;;;;;;5071437;28;20072;-59
2023/09/16 13:15:57;;;;;;;12.35;4.60;;;;;;;;;;5070392;28;20044;-58
2023/09/16 13:18:24;;;;;;;7.13;4.30;;;;;;;;;;5071267;28;20484;-59
2023/09/16 13:20:55;;;;;;;9.18;4.75;;;;;;;;;;5071132;28;20127;-59
2023/09/16 13:23:24;;;;;;;7.28;4.40;;;;;;;;;;5070537;28;20044;-58
2023/09/16 13:25:51;;;;;;;8.80;4.20;;;;;;;;;;5071274;28;20066;-58
2023/09/16 13:28:18;;;;;;;6.47;3.88;;;;;;;;;;5070516;28;20044;-59
2023/09/16 13:30:49;;;;;;;11.52;4.07;;;;;;;;;;5070076;28;20040;-58
2023/09/16 13:33:15;;;;;;;6.30;4.35;;;;;;;;;;5070921;28;20048;-58
2023/09/16 13:35:43;;;;;;;6.50;4.35;;;;;;;;;;5070960;28;20068;-59
2023/09/16 13:38:10;;;;;;;8.07;4.93;;;;;;;;;;5070385;28;20400;-58
2023/09/16 13:40:37;;;;;;;9.02;4.65;;;;;;;;;;5070771;28;20033;-58
2023/09/16 13:43:04;;;;;;;8.05;4.82;;;;;;;;;;5070152;28;20115;-58
2023/09/16 13:45:30;;;;;;;9.90;4.63;;;;;;;;;;5070756;28;20044;-58
2023/09/16 13:48:10;;;;;;;7.05;4.95;;;;;;;;;;5070658;28;20052;-58
2023/09/16 13:50:38;;;;;;;8.48;4.85;;;;;;;;;;5070041;28;20043;-58
2023/09/16 13:53:04;;;;;;;10.32;4.88;;;;;;;;;;5070898;28;20058;-58
2023/09/16 13:55:31;;;;;;;9.80;5.40;;;;;;;;;;5070667;28;20044;-58
2023/09/16 13:57:57;;;;;;;7.18;4.78;;;;;;;;;;5069570;28;20037;-58
2023/09/16 14:00:23;;;;;;;6.97;4.95;;;;;;;;;;5070559;28;20040;-58
2023/09/16 14:02:49;;;;;;;7.70;5.38;;;;;;;;;;5069112;28;20454;-58
2023/09/16 14:05:16;;;;;;;7.78;4.68;;;;;;;;;;5069718;28;20040;-58
2023/09/16 14:07:42;;;;;;;9.95;5.15;;;;;;;;;;5070577;28;20115;-58
2023/09/16 14:10:08;;;;;;;9.32;5.10;;;;;;;;;;5069789;28;20469;-58
2023/09/16 14:12:35;;;;;;;12.45;5.45;;;;;;;;;;5068320;28;20051;-58
2023/09/16 14:15:01;;;;;;;10.45;5.10;;;;;;;;;;5070789;28;20060;-58
2023/09/16 14:17:27;;;;;;;6.70;4.85;;;;;;;;;;5070736;28;20071;-58
2023/09/16 14:19:53;;;;;;;8.23;4.75;;;;;;;;;;5069557;28;20040;-58
2023/09/16 14:22:19;;;;;;;11.15;5.18;;;;;;;;;;5070459;28;20052;-58
2023/09/16 14:24:46;;;;;;;7.90;4.05;;;;;;;;;;5070294;28;20480;-58
2023/09/16 14:27:13;;;;;;;7.97;4.90;;;;;;;;;;5069191;28;20049;-58
2023/09/16 14:29:39;;;;;;;8.75;5.35;;;;;;;;;;5070192;28;20040;-58